sensor_id;sensor_type;location;lat;lon;timestamp;pressure;altitude;pressure_sealevel;temperature
71630;BMP280;59479;51.902;8.212;2023-08-06T00:00:16;99967.09;;;18.11
71630;BMP280;59479;51.902;8.212;2023-08-06T00:02:41;99965.56;;;18.06
71630;BMP280;59479;51.902;8.212;2023-08-06T00:05:07;99961.22;;;18.08
71630;BMP280;59479;51.902;8.212;2023-08-06T00:07:32;99958.63;;;18.09
71630;BMP280;59479;51.902;8.212;2023-08-06T00:09:57;99967.16;;;18.08
71630;BMP280;59479;51.902;8.212;2023-08-06T00:12:23;99964.75;;;18.05
71630;BMP280;59479;51.902;8.212;2023-08-06T00:14:52;99959.00;;;18.00
71630;BMP280;59479;51.902;8.212;2023-08-06T00:17:18;99958.91;;;18.03
71630;BMP280;59479;51.902;8.212;2023-08-06T00:19:43;99955.66;;;18.00
71630;BMP280;59479;51.902;8.212;2023-08-06T00:22:09;99947.97;;;18.01
71630;BMP280;59479;51.902;8.212;2023-08-06T00:24:34;99953.94;;;18.00
71630;BMP280;59479;51.902;8.212;2023-08-06T00:27:00;99952.41;;;17.96
71630;BMP280;59479;51.902;8.212;2023-08-06T00:29:25;99945.66;;;17.95
71630;BMP280;59479;51.902;8.212;2023-08-06T00:31:51;99942.25;;;17.96
71630;BMP280;59479;51.902;8.212;2023-08-06T00:34:16;99940.50;;;17.97
71630;BMP280;59479;51.902;8.212;2023-08-06T00:36:41;99946.41;;;17.97
71630;BMP280;59479;51.902;8.212;2023-08-06T00:39:07;99942.28;;;17.95
71630;BMP280;59479;51.902;8.212;2023-08-06T00:41:32;99936.47;;;17.93
71630;BMP280;59479;51.902;8.212;2023-08-06T00:43:57;99939.06;;;17.91
71630;BMP280;59479;51.902;8.212;2023-08-06T00:46:23;99937.28;;;17.93
71630;BMP280;59479;51.902;8.212;2023-08-06T00:48:49;99939.75;;;17.95
71630;BMP280;59479;51.902;8.212;2023-08-06T00:51:15;99937.91;;;17.98
71630;BMP280;59479;51.902;8.212;2023-08-06T00:53:41;99941.34;;;17.97
71630;BMP280;59479;51.902;8.212;2023-08-06T00:56:08;99940.56;;;17.95
71630;BMP280;59479;51.902;8.212;2023-08-06T00:58:35;99933.81;;;17.94
71630;BMP280;59479;51.902;8.212;2023-08-06T01:01:00;99931.22;;;17.96
71630;BMP280;59479;51.902;8.212;2023-08-06T01:03:26;99928.63;;;17.97
71630;BMP280;59479;51.902;8.212;2023-08-06T01:05:51;99926.28;;;17.93
71630;BMP280;59479;51.902;8.212;2023-08-06T01:08:30;99926.53;;;17.87
71630;BMP280;59479;51.902;8.212;2023-08-06T01:11:21;99914.69;;;17.86
71630;BMP280;59479;51.902;8.212;2023-08-06T01:13:50;99919.84;;;17.84
71630;BMP280;59479;51.902;8.212;2023-08-06T01:16:20;99911.44;;;17.82
71630;BMP280;59479;51.902;8.212;2023-08-06T01:18:49;99907.16;;;17.84
71630;BMP280;59479;51.902;8.212;2023-08-06T01:21:15;99906.50;;;17.79
71630;BMP280;59479;51.902;8.212;2023-08-06T01:23:42;99911.44;;;17.82
71630;BMP280;59479;51.902;8.212;2023-08-06T01:26:27;99907.31;;;17.80
71630;BMP280;59479;51.902;8.212;2023-08-06T01:31:27;99907.31;;;17.80
71630;BMP280;59479;51.902;8.212;2023-08-06T01:33:56;99905.00;;;17.74
71630;BMP280;59479;51.902;8.212;2023-08-06T01:36:22;99916.03;;;17.74
71630;BMP280;59479;51.902;8.212;2023-08-06T01:38:48;99898.03;;;17.79
71630;BMP280;59479;51.902;8.212;2023-08-06T01:41:15;99906.34;;;17.82
71630;BMP280;59479;51.902;8.212;2023-08-06T01:43:41;99899.44;;;17.86
71630;BMP280;59479;51.902;8.212;2023-08-06T01:46:06;99892.88;;;17.80
71630;BMP280;59479;51.902;8.212;2023-08-06T01:48:31;99891.16;;;17.81
71630;BMP280;59479;51.902;8.212;2023-08-06T01:50:57;99890.34;;;17.80
71630;BMP280;59479;51.902;8.212;2023-08-06T01:53:22;99877.75;;;17.77
71630;BMP280;59479;51.902;8.212;2023-08-06T01:55:50;99881.00;;;17.81
71630;BMP280;59479;51.902;8.212;2023-08-06T01:58:16;99879.38;;;17.80
71630;BMP280;59479;51.902;8.212;2023-08-06T02:00:41;99877.59;;;17.82
71630;BMP280;59479;51.902;8.212;2023-08-06T02:03:06;99881.84;;;17.81
71630;BMP280;59479;51.902;8.212;2023-08-06T02:05:32;99877.38;;;17.67
71630;BMP280;59479;51.902;8.212;2023-08-06T02:07:57;99875.72;;;17.66
71630;BMP280;59479;51.902;8.212;2023-08-06T02:10:22;99872.19;;;17.69
71630;BMP280;59479;51.902;8.212;2023-08-06T02:12:48;99867.84;;;17.71
71630;BMP280;59479;51.902;8.212;2023-08-06T02:15:13;99866.94;;;17.72
71630;BMP280;59479;51.902;8.212;2023-08-06T02:17:38;99856.78;;;17.72
71630;BMP280;59479;51.902;8.212;2023-08-06T02:20:04;99855.97;;;17.72
71630;BMP280;59479;51.902;8.212;2023-08-06T02:22:30;99854.19;;;17.74
71630;BMP280;59479;51.902;8.212;2023-08-06T02:24:55;99844.03;;;17.74
71630;BMP280;59479;51.902;8.212;2023-08-06T02:27:20;99844.94;;;17.73
71630;BMP280;59479;51.902;8.212;2023-08-06T02:29:46;99846.63;;;17.72
71630;BMP280;59479;51.902;8.212;2023-08-06T02:32:11;99849.94;;;17.74
71630;BMP280;59479;51.902;8.212;2023-08-06T02:34:39;99851.59;;;17.75
71630;BMP280;59479;51.902;8.212;2023-08-06T02:37:04;99846.50;;;17.75
71630;BMP280;59479;51.902;8.212;2023-08-06T02:39:29;99840.72;;;17.72
71630;BMP280;59479;51.902;8.212;2023-08-06T02:41:55;99840.78;;;17.70
71630;BMP280;59479;51.902;8.212;2023-08-06T02:44:20;99840.03;;;17.68
71630;BMP280;59479;51.902;8.212;2023-08-06T02:46:45;99839.19;;;17.68
71630;BMP280;59479;51.902;8.212;2023-08-06T02:49:11;99849.38;;;17.68
71630;BMP280;59479;51.902;8.212;2023-08-06T02:51:36;99845.16;;;17.67
71630;BMP280;59479;51.902;8.212;2023-08-06T02:54:01;99839.25;;;17.67
71630;BMP280;59479;51.902;8.212;2023-08-06T02:56:27;99832.63;;;17.63
71630;BMP280;59479;51.902;8.212;2023-08-06T02:58:52;99833.66;;;17.59
71630;BMP280;59479;51.902;8.212;2023-08-06T03:01:17;99823.75;;;17.53
71630;BMP280;59479;51.902;8.212;2023-08-06T03:03:43;99821.28;;;17.51
71630;BMP280;59479;51.902;8.212;2023-08-06T03:06:08;99826.22;;;17.54
71630;BMP280;59479;51.902;8.212;2023-08-06T03:08:34;99825.41;;;17.54
71630;BMP280;59479;51.902;8.212;2023-08-06T03:11:02;99818.69;;;17.53
71630;BMP280;59479;51.902;8.212;2023-08-06T03:13:27;99817.94;;;17.49
71630;BMP280;59479;51.902;8.212;2023-08-06T03:15:57;99815.41;;;17.49
71630;BMP280;59479;51.902;8.212;2023-08-06T03:18:23;99809.28;;;17.55
71630;BMP280;59479;51.902;8.212;2023-08-06T03:20:49;99810.31;;;17.49
71630;BMP280;59479;51.902;8.212;2023-08-06T03:23:14;99801.88;;;17.49
71630;BMP280;59479;51.902;8.212;2023-08-06T03:25:40;99810.41;;;17.48
71630;BMP280;59479;51.902;8.212;2023-08-06T03:28:08;99812.22;;;17.44
71630;BMP280;59479;51.902;8.212;2023-08-06T03:30:33;99810.75;;;17.39
71630;BMP280;59479;51.902;8.212;2023-08-06T03:32:59;99818.28;;;17.42
71630;BMP280;59479;51.902;8.212;2023-08-06T03:35:26;99809.91;;;17.40
71630;BMP280;59479;51.902;8.212;2023-08-06T03:37:52;99806.78;;;17.33
71630;BMP280;59479;51.902;8.212;2023-08-06T03:40:17;99803.25;;;17.36
71630;BMP280;59479;51.902;8.212;2023-08-06T03:42:42;99807.34;;;17.40
71630;BMP280;59479;51.902;8.212;2023-08-06T03:45:08;99805.69;;;17.39
71630;BMP280;59479;51.902;8.212;2023-08-06T03:47:34;99797.25;;;17.38
71630;BMP280;59479;51.902;8.212;2023-08-06T03:49:59;99802.28;;;17.40
71630;BMP280;59479;51.902;8.212;2023-08-06T03:52:24;99792.94;;;17.40
71630;BMP280;59479;51.902;8.212;2023-08-06T03:54:50;99793.75;;;17.41
71630;BMP280;59479;51.902;8.212;2023-08-06T03:57:15;99798.75;;;17.42
71630;BMP280;59479;51.902;8.212;2023-08-06T03:59:41;99788.75;;;17.39
71630;BMP280;59479;51.902;8.212;2023-08-06T04:02:06;99781.03;;;17.41
71630;BMP280;59479;51.902;8.212;2023-08-06T04:04:31;99792.69;;;17.46
71630;BMP280;59479;51.902;8.212;2023-08-06T04:06:57;99784.16;;;17.47
71630;BMP280;59479;51.902;8.212;2023-08-06T04:09:22;99786.91;;;17.43
71630;BMP280;59479;51.902;8.212;2023-08-06T04:11:47;99781.84;;;17.43
71630;BMP280;59479;51.902;8.212;2023-08-06T04:14:12;99779.16;;;17.46
71630;BMP280;59479;51.902;8.212;2023-08-06T04:16:38;99779.03;;;17.49
71630;BMP280;59479;51.902;8.212;2023-08-06T04:19:03;99778.28;;;17.47
71630;BMP280;59479;51.902;8.212;2023-08-06T04:21:28;99781.50;;;17.50
71630;BMP280;59479;51.902;8.212;2023-08-06T04:23:55;99778.09;;;17.51
71630;BMP280;59479;51.902;8.212;2023-08-06T04:26:21;99780.63;;;17.51
71630;BMP280;59479;51.902;8.212;2023-08-06T04:28:46;99780.63;;;17.51
71630;BMP280;59479;51.902;8.212;2023-08-06T04:31:11;99776.44;;;17.50
71630;BMP280;59479;51.902;8.212;2023-08-06T04:33:37;99777.41;;;17.48
71630;BMP280;59479;51.902;8.212;2023-08-06T04:36:02;99777.41;;;17.48
71630;BMP280;59479;51.902;8.212;2023-08-06T04:38:28;99777.41;;;17.48
71630;BMP280;59479;51.902;8.212;2023-08-06T04:40:53;99778.16;;;17.50
71630;BMP280;59479;51.902;8.212;2023-08-06T04:43:19;99785.00;;;17.48
71630;BMP280;59479;51.902;8.212;2023-08-06T04:45:49;99785.00;;;17.48
71630;BMP280;59479;51.902;8.212;2023-08-06T04:48:14;99779.09;;;17.47
71630;BMP280;59479;51.902;8.212;2023-08-06T04:50:47;99772.38;;;17.46
71630;BMP280;59479;51.902;8.212;2023-08-06T04:53:13;99781.56;;;17.49
71630;BMP280;59479;51.902;8.212;2023-08-06T04:55:38;99786.66;;;17.49
71630;BMP280;59479;51.902;8.212;2023-08-06T04:58:04;99779.78;;;17.51
71630;BMP280;59479;51.902;8.212;2023-08-06T05:00:30;99782.47;;;17.48
71630;BMP280;59479;51.902;8.212;2023-08-06T05:02:55;99784.06;;;17.50
71630;BMP280;59479;51.902;8.212;2023-08-06T05:05:21;99783.22;;;17.50
71630;BMP280;59479;51.902;8.212;2023-08-06T05:07:49;99784.00;;;17.52
71630;BMP280;59479;51.902;8.212;2023-08-06T05:10:14;99790.97;;;17.47
71630;BMP280;59479;51.902;8.212;2023-08-06T05:12:40;99791.72;;;17.49
71630;BMP280;59479;51.902;8.212;2023-08-06T05:15:06;99786.06;;;17.42
71630;BMP280;59479;51.902;8.212;2023-08-06T05:17:31;99792.00;;;17.43
71630;BMP280;59479;51.902;8.212;2023-08-06T05:20:00;99798.72;;;17.44
71630;BMP280;59479;51.902;8.212;2023-08-06T05:22:25;99793.91;;;17.38
71630;BMP280;59479;51.902;8.212;2023-08-06T05:24:51;99783.47;;;17.44
71630;BMP280;59479;51.902;8.212;2023-08-06T05:27:16;99797.88;;;17.43
71630;BMP280;59479;51.902;8.212;2023-08-06T05:29:44;99781.84;;;17.43
71630;BMP280;59479;51.902;8.212;2023-08-06T05:32:09;99783.47;;;17.44
71630;BMP280;59479;51.902;8.212;2023-08-06T05:34:35;99790.97;;;17.47
71630;BMP280;59479;51.902;8.212;2023-08-06T05:37:00;99800.59;;;17.39
71630;BMP280;59479;51.902;8.212;2023-08-06T05:39:25;99799.47;;;17.46
71630;BMP280;59479;51.902;8.212;2023-08-06T05:41:51;99787.56;;;17.48
71630;BMP280;59479;51.902;8.212;2023-08-06T05:44:17;99800.91;;;17.53
71630;BMP280;59479;51.902;8.212;2023-08-06T05:46:43;99800.75;;;17.56
71630;BMP280;59479;51.902;8.212;2023-08-06T05:49:08;99801.50;;;17.58
71630;BMP280;59479;51.902;8.212;2023-08-06T05:51:33;99800.69;;;17.57
71630;BMP280;59479;51.902;8.212;2023-08-06T05:53:59;99803.00;;;17.63
71630;BMP280;59479;51.902;8.212;2023-08-06T05:56:24;99800.44;;;17.63
71630;BMP280;59479;51.902;8.212;2023-08-06T05:58:49;99803.75;;;17.65
71630;BMP280;59479;51.902;8.212;2023-08-06T06:01:18;99797.53;;;17.72
71630;BMP280;59479;51.902;8.212;2023-08-06T06:03:45;99794.81;;;17.76
71630;BMP280;59479;51.902;8.212;2023-08-06T06:06:11;99795.69;;;17.75
71630;BMP280;59479;51.902;8.212;2023-08-06T06:08:36;99791.09;;;17.83
71630;BMP280;59479;51.902;8.212;2023-08-06T06:11:02;99796.31;;;17.80
71630;BMP280;59479;51.902;8.212;2023-08-06T06:13:40;99799.41;;;17.87
71630;BMP280;59479;51.902;8.212;2023-08-06T06:16:06;99798.72;;;17.83
71630;BMP280;59479;51.902;8.212;2023-08-06T06:18:31;99801.22;;;17.85
71630;BMP280;59479;51.902;8.212;2023-08-06T06:20:56;99798.38;;;17.91
71630;BMP280;59479;51.902;8.212;2023-08-06T06:23:22;99805.84;;;17.95
71630;BMP280;59479;51.902;8.212;2023-08-06T06:25:48;99799.53;;;18.04
71630;BMP280;59479;51.902;8.212;2023-08-06T06:28:13;99800.63;;;17.98
71630;BMP280;59479;51.902;8.212;2023-08-06T06:30:40;99798.41;;;18.10
71630;BMP280;59479;51.902;8.212;2023-08-06T06:33:08;99791.22;;;18.20
71630;BMP280;59479;51.902;8.212;2023-08-06T06:35:33;99797.88;;;18.22
71630;BMP280;59479;51.902;8.212;2023-08-06T06:38:01;99796.94;;;18.25
71630;BMP280;59479;51.902;8.212;2023-08-06T06:40:27;99795.13;;;18.27
71630;BMP280;59479;51.902;8.212;2023-08-06T06:42:53;99793.28;;;18.30
71630;BMP280;59479;51.902;8.212;2023-08-06T06:45:18;99800.66;;;18.36
71630;BMP280;59479;51.902;8.212;2023-08-06T06:47:43;99796.63;;;18.31
71630;BMP280;59479;51.902;8.212;2023-08-06T06:50:09;99796.38;;;18.37
71630;BMP280;59479;51.902;8.212;2023-08-06T06:52:37;99799.28;;;18.48
71630;BMP280;59479;51.902;8.212;2023-08-06T06:55:03;99789.88;;;18.50
71630;BMP280;59479;51.902;8.212;2023-08-06T06:57:28;99793.50;;;18.62
71630;BMP280;59479;51.902;8.212;2023-08-06T06:59:54;99789.69;;;18.71
71630;BMP280;59479;51.902;8.212;2023-08-06T07:02:19;99788.63;;;18.76
71630;BMP280;59479;51.902;8.212;2023-08-06T07:04:44;99786.06;;;18.76
71630;BMP280;59479;51.902;8.212;2023-08-06T07:07:10;99785.78;;;18.82
71630;BMP280;59479;51.902;8.212;2023-08-06T07:09:35;99780.53;;;18.85
71630;BMP280;59479;51.902;8.212;2023-08-06T07:12:00;99790.28;;;18.94
71630;BMP280;59479;51.902;8.212;2023-08-06T07:14:29;99783.84;;;19.05
71630;BMP280;59479;51.902;8.212;2023-08-06T07:16:54;99778.41;;;19.13
71630;BMP280;59479;51.902;8.212;2023-08-06T07:19:19;99778.03;;;19.20
71630;BMP280;59479;51.902;8.212;2023-08-06T07:21:45;99780.03;;;19.31
71630;BMP280;59479;51.902;8.212;2023-08-06T07:24:11;99779.75;;;19.37
71630;BMP280;59479;51.902;8.212;2023-08-06T07:26:37;99787.19;;;19.41
71630;BMP280;59479;51.902;8.212;2023-08-06T07:29:02;99786.81;;;19.32
71630;BMP280;59479;51.902;8.212;2023-08-06T07:31:28;99781.19;;;19.42
71630;BMP280;59479;51.902;8.212;2023-08-06T07:33:53;99786.66;;;19.51
71630;BMP280;59479;51.902;8.212;2023-08-06T07:36:18;99779.75;;;19.53
71630;BMP280;59479;51.902;8.212;2023-08-06T07:38:44;99782.09;;;19.58
71630;BMP280;59479;51.902;8.212;2023-08-06T07:41:09;99785.59;;;19.55
71630;BMP280;59479;51.902;8.212;2023-08-06T07:43:35;99780.28;;;19.60
71630;BMP280;59479;51.902;8.212;2023-08-06T07:46:01;99783.66;;;19.60
71630;BMP280;59479;51.902;8.212;2023-08-06T07:48:27;99774.97;;;19.64
71630;BMP280;59479;51.902;8.212;2023-08-06T07:50:56;99778.72;;;19.74
71630;BMP280;59479;51.902;8.212;2023-08-06T07:53:22;99774.72;;;19.85
71630;BMP280;59479;51.902;8.212;2023-08-06T07:55:51;99776.31;;;19.88
71630;BMP280;59479;51.902;8.212;2023-08-06T07:58:17;99776.47;;;19.85
71630;BMP280;59479;51.902;8.212;2023-08-06T08:00:43;99766.38;;;19.99
71630;BMP280;59479;51.902;8.212;2023-08-06T08:03:11;99769.22;;;20.10
71630;BMP280;59479;51.902;8.212;2023-08-06T08:05:37;99773.31;;;20.12
71630;BMP280;59479;51.902;8.212;2023-08-06T08:08:02;99773.09;;;20.17
71630;BMP280;59479;51.902;8.212;2023-08-06T08:10:28;99765.75;;;20.11
71630;BMP280;59479;51.902;8.212;2023-08-06T08:12:53;99768.59;;;20.22
71630;BMP280;59479;51.902;8.212;2023-08-06T08:15:18;99765.13;;;20.23
71630;BMP280;59479;51.902;8.212;2023-08-06T08:17:47;99767.50;;;20.25
71630;BMP280;59479;51.902;8.212;2023-08-06T08:20:13;99772.38;;;20.30
71630;BMP280;59479;51.902;8.212;2023-08-06T08:22:38;99783.25;;;20.33
71630;BMP280;59479;51.902;8.212;2023-08-06T08:25:04;99772.88;;;20.36
71630;BMP280;59479;51.902;8.212;2023-08-06T08:27:30;99769.84;;;20.45
71630;BMP280;59479;51.902;8.212;2023-08-06T08:29:55;99764.34;;;20.53
71630;BMP280;59479;51.902;8.212;2023-08-06T08:32:21;99763.19;;;20.58
71630;BMP280;59479;51.902;8.212;2023-08-06T08:34:46;99764.53;;;20.65
71630;BMP280;59479;51.902;8.212;2023-08-06T08:37:13;99769.47;;;20.68
71630;BMP280;59479;51.902;8.212;2023-08-06T08:39:38;99768.75;;;20.66
71630;BMP280;59479;51.902;8.212;2023-08-06T08:42:05;99764.22;;;20.71
71630;BMP280;59479;51.902;8.212;2023-08-06T08:44:32;99759.56;;;20.62
71630;BMP280;59479;51.902;8.212;2023-08-06T08:46:59;99765.84;;;20.72
71630;BMP280;59479;51.902;8.212;2023-08-06T08:49:26;99754.38;;;20.79
71630;BMP280;59479;51.902;8.212;2023-08-06T08:51:53;99762.03;;;20.79
71630;BMP280;59479;51.902;8.212;2023-08-06T08:54:22;99763.38;;;20.86
71630;BMP280;59479;51.902;8.212;2023-08-06T08:56:48;99763.84;;;20.92
71630;BMP280;59479;51.902;8.212;2023-08-06T08:59:13;99770.53;;;20.95
71630;BMP280;59479;51.902;8.212;2023-08-06T09:01:39;99763.34;;;21.01
71630;BMP280;59479;51.902;8.212;2023-08-06T09:04:05;99757.97;;;21.06
71630;BMP280;59479;51.902;8.212;2023-08-06T09:06:33;99766.56;;;21.05
71630;BMP280;59479;51.902;8.212;2023-08-06T09:09:12;99753.09;;;21.16
71630;BMP280;59479;51.902;8.212;2023-08-06T09:11:44;99762.00;;;21.09
71630;BMP280;59479;51.902;8.212;2023-08-06T09:14:11;99753.75;;;21.20
71630;BMP280;59479;51.902;8.212;2023-08-06T09:16:36;99759.09;;;21.31
71630;BMP280;59479;51.902;8.212;2023-08-06T09:19:11;99759.34;;;21.26
71630;BMP280;59479;51.902;8.212;2023-08-06T09:21:38;99756.91;;;21.39
71630;BMP280;59479;51.902;8.212;2023-08-06T09:24:11;99760.53;;;21.50
71630;BMP280;59479;51.902;8.212;2023-08-06T09:26:40;99762.75;;;21.56
71630;BMP280;59479;51.902;8.212;2023-08-06T09:29:07;99763.63;;;21.55
71630;BMP280;59479;51.902;8.212;2023-08-06T09:31:48;99762.38;;;21.62
71630;BMP280;59479;51.902;8.212;2023-08-06T09:34:18;99770.25;;;21.73
71630;BMP280;59479;51.902;8.212;2023-08-06T09:36:51;99772.56;;;21.77
71630;BMP280;59479;51.902;8.212;2023-08-06T09:39:21;99769.31;;;21.74
71630;BMP280;59479;51.902;8.212;2023-08-06T09:41:47;99767.53;;;21.76
71630;BMP280;59479;51.902;8.212;2023-08-06T09:44:20;99766.59;;;21.77
71630;BMP280;59479;51.902;8.212;2023-08-06T09:46:53;99766.50;;;21.78
71630;BMP280;59479;51.902;8.212;2023-08-06T09:49:20;99768.06;;;21.81
71630;BMP280;59479;51.902;8.212;2023-08-06T09:51:50;99758.97;;;21.91
71630;BMP280;59479;51.902;8.212;2023-08-06T09:54:17;99759.50;;;21.95
71630;BMP280;59479;51.902;8.212;2023-08-06T09:56:46;99753.00;;;21.90
71630;BMP280;59479;51.902;8.212;2023-08-06T09:59:11;99760.50;;;21.93
71630;BMP280;59479;51.902;8.212;2023-08-06T10:01:37;99757.75;;;21.96
71630;BMP280;59479;51.902;8.212;2023-08-06T10:04:03;99749.91;;;21.99
71630;BMP280;59479;51.902;8.212;2023-08-06T10:06:31;99757.66;;;22.11
71630;BMP280;59479;51.902;8.212;2023-08-06T10:08:57;99752.78;;;22.22
71630;BMP280;59479;51.902;8.212;2023-08-06T10:11:24;99749.44;;;22.20
71630;BMP280;59479;51.902;8.212;2023-08-06T10:13:55;99740.97;;;22.20
71630;BMP280;59479;51.902;8.212;2023-08-06T10:16:22;99748.91;;;22.29
71630;BMP280;59479;51.902;8.212;2023-08-06T10:18:48;99745.25;;;22.33
71630;BMP280;59479;51.902;8.212;2023-08-06T10:21:14;99748.81;;;22.31
71630;BMP280;59479;51.902;8.212;2023-08-06T10:23:41;99755.13;;;22.39
71630;BMP280;59479;51.902;8.212;2023-08-06T10:26:07;99745.22;;;22.47
71630;BMP280;59479;51.902;8.212;2023-08-06T10:28:39;99739.06;;;22.63
71630;BMP280;59479;51.902;8.212;2023-08-06T10:31:05;99738.19;;;22.77
71630;BMP280;59479;51.902;8.212;2023-08-06T10:33:44;99732.69;;;22.82
71630;BMP280;59479;51.902;8.212;2023-08-06T10:36:10;99739.34;;;22.85
71630;BMP280;59479;51.902;8.212;2023-08-06T10:38:48;99732.53;;;22.72
71630;BMP280;59479;51.902;8.212;2023-08-06T10:41:27;99733.94;;;22.89
71630;BMP280;59479;51.902;8.212;2023-08-06T10:44:05;99726.19;;;22.91
71630;BMP280;59479;51.902;8.212;2023-08-06T10:46:31;99721.69;;;22.94
71630;BMP280;59479;51.902;8.212;2023-08-06T10:48:56;99724.59;;;23.02
71630;BMP280;59479;51.902;8.212;2023-08-06T10:51:21;99730.97;;;23.09
71630;BMP280;59479;51.902;8.212;2023-08-06T10:53:49;99731.91;;;23.21
71630;BMP280;59479;51.902;8.212;2023-08-06T10:56:18;99732.13;;;23.30
71630;BMP280;59479;51.902;8.212;2023-08-06T10:58:45;99724.22;;;23.33
71630;BMP280;59479;51.902;8.212;2023-08-06T11:01:12;99717.44;;;23.32
71630;BMP280;59479;51.902;8.212;2023-08-06T11:03:37;99721.81;;;23.44
71630;BMP280;59479;51.902;8.212;2023-08-06T11:06:03;99715.31;;;23.38
71630;BMP280;59479;51.902;8.212;2023-08-06T11:08:34;99718.91;;;23.48
71630;BMP280;59479;51.902;8.212;2023-08-06T11:13:36;99709.94;;;23.67
71630;BMP280;59479;51.902;8.212;2023-08-06T11:16:02;99713.59;;;23.51
71630;BMP280;59479;51.902;8.212;2023-08-06T11:18:28;99708.88;;;23.58
71630;BMP280;59479;51.902;8.212;2023-08-06T11:20:54;99707.94;;;23.59
71630;BMP280;59479;51.902;8.212;2023-08-06T11:23:19;99711.56;;;23.68
71630;BMP280;59479;51.902;8.212;2023-08-06T11:25:45;99698.72;;;23.68
71630;BMP280;59479;51.902;8.212;2023-08-06T11:28:11;99709.94;;;23.67
71630;BMP280;59479;51.902;8.212;2023-08-06T11:30:37;99701.09;;;23.71
71630;BMP280;59479;51.902;8.212;2023-08-06T11:33:03;99716.91;;;23.65
71630;BMP280;59479;51.902;8.212;2023-08-06T11:35:28;99713.06;;;23.59
71630;BMP280;59479;51.902;8.212;2023-08-06T11:37:53;99723.56;;;23.56
71630;BMP280;59479;51.902;8.212;2023-08-06T11:40:22;99713.59;;;23.63
71630;BMP280;59479;51.902;8.212;2023-08-06T11:50:58;99706.41;;;23.56
71630;BMP280;59479;51.902;8.212;2023-08-06T11:53:39;99711.44;;;23.58
71630;BMP280;59479;51.902;8.212;2023-08-06T11:59:54;99712.34;;;23.44
71630;BMP280;59479;51.902;8.212;2023-08-06T12:02:49;99717.56;;;23.30
71630;BMP280;59479;51.902;8.212;2023-08-06T12:05:28;99707.00;;;23.35
71630;BMP280;59479;51.902;8.212;2023-08-06T12:08:34;99716.44;;;23.34
71630;BMP280;59479;51.902;8.212;2023-08-06T12:11:03;99716.72;;;23.30
71630;BMP280;59479;51.902;8.212;2023-08-06T12:13:28;99721.56;;;23.22
71630;BMP280;59479;51.902;8.212;2023-08-06T12:16:11;99720.56;;;22.98
71630;BMP280;59479;51.902;8.212;2023-08-06T12:18:42;99724.28;;;22.80
71630;BMP280;59479;51.902;8.212;2023-08-06T12:21:09;99730.69;;;22.74
71630;BMP280;59479;51.902;8.212;2023-08-06T12:24:04;99725.28;;;22.78
71630;BMP280;59479;51.902;8.212;2023-08-06T12:26:31;99715.78;;;22.54
71630;BMP280;59479;51.902;8.212;2023-08-06T12:28:59;99723.66;;;22.37
71630;BMP280;59479;51.902;8.212;2023-08-06T12:38:27;99720.84;;;22.00
71630;BMP280;59479;51.902;8.212;2023-08-06T12:41:23;99729.63;;;21.96
71630;BMP280;59479;51.902;8.212;2023-08-06T12:43:48;99739.38;;;21.90
71630;BMP280;59479;51.902;8.212;2023-08-06T12:46:13;99755.72;;;21.73
71630;BMP280;59479;51.902;8.212;2023-08-06T12:48:39;99763.81;;;21.52
71630;BMP280;59479;51.902;8.212;2023-08-06T12:51:06;99761.34;;;21.35
71630;BMP280;59479;51.902;8.212;2023-08-06T12:53:32;99758.53;;;21.26
71630;BMP280;59479;51.902;8.212;2023-08-06T12:56:03;99754.06;;;21.29
71630;BMP280;59479;51.902;8.212;2023-08-06T12:58:34;99740.75;;;21.09
71630;BMP280;59479;51.902;8.212;2023-08-06T13:01:00;99751.88;;;21.08
71630;BMP280;59479;51.902;8.212;2023-08-06T13:03:28;99752.97;;;20.89
71630;BMP280;59479;51.902;8.212;2023-08-06T13:06:03;99751.34;;;20.88
71630;BMP280;59479;51.902;8.212;2023-08-06T13:08:32;99764.53;;;20.65
71630;BMP280;59479;51.902;8.212;2023-08-06T13:11:00;99757.91;;;20.61
71630;BMP280;59479;51.902;8.212;2023-08-06T13:13:26;99767.66;;;20.70
71630;BMP280;59479;51.902;8.212;2023-08-06T13:15:52;99772.75;;;20.70
71630;BMP280;59479;51.902;8.212;2023-08-06T13:18:17;99761.31;;;20.77
71630;BMP280;59479;51.902;8.212;2023-08-06T13:20:43;99766.75;;;20.71
71630;BMP280;59479;51.902;8.212;2023-08-06T13:23:08;99765.69;;;20.75
71630;BMP280;59479;51.902;8.212;2023-08-06T13:25:33;99762.38;;;20.73
71630;BMP280;59479;51.902;8.212;2023-08-06T13:28:04;99758.03;;;20.75
71630;BMP280;59479;51.902;8.212;2023-08-06T13:30:30;99759.91;;;20.71
71630;BMP280;59479;51.902;8.212;2023-08-06T13:32:55;99758.03;;;20.75
71630;BMP280;59479;51.902;8.212;2023-08-06T13:35:24;99757.28;;;20.73
71630;BMP280;59479;51.902;8.212;2023-08-06T13:37:50;99757.38;;;20.71
71630;BMP280;59479;51.902;8.212;2023-08-06T13:40:15;99757.69;;;20.65
71630;BMP280;59479;51.902;8.212;2023-08-06T13:42:40;99752.66;;;20.64
71630;BMP280;59479;51.902;8.212;2023-08-06T13:45:06;99758.06;;;20.58
71630;BMP280;59479;51.902;8.212;2023-08-06T13:47:32;99765.75;;;20.58
71630;BMP280;59479;51.902;8.212;2023-08-06T13:49:58;99769.56;;;20.66
71630;BMP280;59479;51.902;8.212;2023-08-06T13:52:25;99773.69;;;20.69
71630;BMP280;59479;51.902;8.212;2023-08-06T13:54:50;99775.16;;;20.73
71630;BMP280;59479;51.902;8.212;2023-08-06T13:57:16;99783.97;;;20.67
71630;BMP280;59479;51.902;8.212;2023-08-06T13:59:42;99776.97;;;20.71
71630;BMP280;59479;51.902;8.212;2023-08-06T14:02:08;99777.56;;;20.76
71630;BMP280;59479;51.902;8.212;2023-08-06T14:04:34;99774.59;;;20.68
71630;BMP280;59479;51.902;8.212;2023-08-06T14:06:59;99779.44;;;20.72
71630;BMP280;59479;51.902;8.212;2023-08-06T14:09:24;99783.72;;;20.72
71630;BMP280;59479;51.902;8.212;2023-08-06T14:11:50;99795.28;;;20.62
71630;BMP280;59479;51.902;8.212;2023-08-06T14:14:15;99795.47;;;20.59
71630;BMP280;59479;51.902;8.212;2023-08-06T14:16:41;99793.66;;;20.61
71630;BMP280;59479;51.902;8.212;2023-08-06T14:19:06;99800.47;;;20.61
71630;BMP280;59479;51.902;8.212;2023-08-06T14:21:32;99800.97;;;20.52
71630;BMP280;59479;51.902;8.212;2023-08-06T14:23:57;99810.22;;;20.54
71630;BMP280;59479;51.902;8.212;2023-08-06T14:26:22;99804.59;;;20.48
71630;BMP280;59479;51.902;8.212;2023-08-06T14:28:47;99814.72;;;20.49
71630;BMP280;59479;51.902;8.212;2023-08-06T14:31:13;99818.34;;;20.45